sensor_id;sensor_type;location;lat;lon;timestamp;pressure;altitude;pressure_sealevel;temperature;humidity
20696;BME280;10507;52.754;13.040;2023-04-06T16:49:10;99685.38;;;11.99;53.60
20696;BME280;10507;52.754;13.040;2023-04-06T16:52:15;99657.50;;;11.27;53.43
20696;BME280;10507;52.754;13.040;2023-04-06T16:55:08;99688.94;;;10.83;54.76
20696;BME280;10507;52.754;13.040;2023-04-06T16:57:36;99680.28;;;10.52;54.92
20696;BME280;10507;52.754;13.040;2023-04-06T17:00:05;99705.94;;;10.26;55.67
20696;BME280;10507;52.754;13.040;2023-04-06T17:02:33;99733.78;;;10.08;56.28
20696;BME280;10507;52.754;13.040;2023-04-06T17:05:04;99792.34;;;9.95;57.21
20696;BME280;10507;52.754;13.040;2023-04-06T17:07:35;99814.44;;;9.83;57.19
20696;BME280;10507;52.754;13.040;2023-04-06T17:10:03;99864.00;;;9.71;58.26
20696;BME280;10507;52.754;13.040;2023-04-06T17:12:32;99870.75;;;9.62;58.25
20696;BME280;10507;52.754;13.040;2023-04-06T17:15:00;99855.38;;;9.51;58.26
20696;BME280;10507;52.754;13.040;2023-04-06T17:17:29;99866.84;;;9.38;58.75
20696;BME280;10507;52.754;13.040;2023-04-06T17:19:57;99842.25;;;9.32;58.28
20696;BME280;10507;52.754;13.040;2023-04-06T17:22:26;99898.81;;;9.22;59.06
20696;BME280;10507;52.754;13.040;2023-04-06T17:24:54;99876.13;;;9.14;59.11
20696;BME280;10507;52.754;13.040;2023-04-06T17:27:22;99870.28;;;9.08;59.01
20696;BME280;10507;52.754;13.040;2023-04-06T17:29:52;99873.38;;;9.00;58.91
20696;BME280;10507;52.754;13.040;2023-04-06T17:32:20;99885.16;;;8.96;58.60
20696;BME280;10507;52.754;13.040;2023-04-06T17:34:48;99915.97;;;8.84;59.51
20696;BME280;10507;52.754;13.040;2023-04-06T17:37:16;99955.53;;;8.74;60.24
20696;BME280;10507;52.754;13.040;2023-04-06T17:39:45;99933.63;;;8.69;60.60
20696;BME280;10507;52.754;13.040;2023-04-06T17:42:13;99965.19;;;8.60;60.21
20696;BME280;10507;52.754;13.040;2023-04-06T17:44:41;99964.66;;;8.53;60.79
20696;BME280;10507;52.754;13.040;2023-04-06T17:47:09;99980.31;;;8.42;61.42
20696;BME280;10507;52.754;13.040;2023-04-06T17:49:37;99999.53;;;8.29;61.85
20696;BME280;10507;52.754;13.040;2023-04-06T17:52:05;100026.75;;;8.17;62.82
20696;BME280;10507;52.754;13.040;2023-04-06T17:54:36;100023.78;;;8.06;62.70
20696;BME280;10507;52.754;13.040;2023-04-06T17:57:05;100037.34;;;8.00;62.45
20696;BME280;10507;52.754;13.040;2023-04-06T17:59:34;100016.06;;;7.82;62.90
20696;BME280;10507;52.754;13.040;2023-04-06T18:02:02;100056.00;;;7.81;63.51
20696;BME280;10507;52.754;13.040;2023-04-06T18:04:31;100058.44;;;7.66;63.13
20696;BME280;10507;52.754;13.040;2023-04-06T18:06:59;100080.06;;;7.59;63.70
20696;BME280;10507;52.754;13.040;2023-04-06T18:09:29;100076.00;;;7.52;64.48
20696;BME280;10507;52.754;13.040;2023-04-06T18:11:57;100097.78;;;7.39;64.48
20696;BME280;10507;52.754;13.040;2023-04-06T18:14:26;100101.66;;;7.32;65.30
20696;BME280;10507;52.754;13.040;2023-04-06T18:16:54;100126.19;;;7.18;65.35
20696;BME280;10507;52.754;13.040;2023-04-06T18:19:22;100111.13;;;7.19;65.03
20696;BME280;10507;52.754;13.040;2023-04-06T18:21:50;100126.59;;;7.09;65.43
20696;BME280;10507;52.754;13.040;2023-04-06T18:24:18;100189.81;;;6.99;66.83
20696;BME280;10507;52.754;13.040;2023-04-06T18:27:05;100178.75;;;6.90;66.69
20696;BME280;10507;52.754;13.040;2023-04-06T18:29:35;100176.22;;;6.86;66.50
20696;BME280;10507;52.754;13.040;2023-04-06T18:32:04;100200.97;;;6.87;65.96
20696;BME280;10507;52.754;13.040;2023-04-06T18:34:33;100192.81;;;6.92;65.79
20696;BME280;10507;52.754;13.040;2023-04-06T18:37:01;100172.69;;;6.86;65.17
20696;BME280;10507;52.754;13.040;2023-04-06T18:39:29;100204.41;;;6.89;65.63
20696;BME280;10507;52.754;13.040;2023-04-06T18:41:57;100210.16;;;6.78;66.49
20696;BME280;10507;52.754;13.040;2023-04-06T18:44:25;100230.78;;;6.72;66.53
20696;BME280;10507;52.754;13.040;2023-04-06T18:46:55;100235.28;;;6.70;66.20
20696;BME280;10507;52.754;13.040;2023-04-06T18:49:23;100241.59;;;6.67;66.82
20696;BME280;10507;52.754;13.040;2023-04-06T18:51:52;100224.00;;;6.64;66.67
20696;BME280;10507;52.754;13.040;2023-04-06T18:54:21;100257.06;;;6.56;66.84
20696;BME280;10507;52.754;13.040;2023-04-06T18:56:49;100273.03;;;6.54;66.61
20696;BME280;10507;52.754;13.040;2023-04-06T18:59:17;100270.00;;;6.41;67.55
20696;BME280;10507;52.754;13.040;2023-04-06T19:01:45;100287.59;;;6.44;67.33
20696;BME280;10507;52.754;13.040;2023-04-06T19:04:19;100290.69;;;6.32;67.46
20696;BME280;10507;52.754;13.040;2023-04-06T19:06:52;100306.06;;;6.45;66.70
20696;BME280;10507;52.754;13.040;2023-04-06T19:09:21;100312.13;;;6.49;66.62
20696;BME280;10507;52.754;13.040;2023-04-06T19:11:49;100313.00;;;6.50;66.27
20696;BME280;10507;52.754;13.040;2023-04-06T19:14:18;100311.31;;;6.47;66.70
20696;BME280;10507;52.754;13.040;2023-04-06T19:16:45;100303.78;;;6.36;66.99
20696;BME280;10507;52.754;13.040;2023-04-06T19:19:20;100318.50;;;6.21;67.80
20696;BME280;10507;52.754;13.040;2023-04-06T19:21:48;100318.50;;;6.21;67.41
20696;BME280;10507;52.754;13.040;2023-04-06T19:24:16;100348.22;;;6.06;68.72
20696;BME280;10507;52.754;13.040;2023-04-06T19:26:44;100343.09;;;6.01;67.94
20696;BME280;10507;52.754;13.040;2023-04-06T19:29:13;100385.41;;;6.03;68.83
20696;BME280;10507;52.754;13.040;2023-04-06T19:31:40;100372.22;;;6.01;68.13
20696;BME280;10507;52.754;13.040;2023-04-06T19:34:08;100381.84;;;6.04;68.45
20696;BME280;10507;52.754;13.040;2023-04-06T19:36:38;100394.63;;;5.91;69.03
20696;BME280;10507;52.754;13.040;2023-04-06T19:39:06;100406.38;;;5.84;69.43
20696;BME280;10507;52.754;13.040;2023-04-06T19:41:34;100413.78;;;5.74;69.88
20696;BME280;10507;52.754;13.040;2023-04-06T19:44:04;100415.75;;;5.68;70.12
20696;BME280;10507;52.754;13.040;2023-04-06T19:46:32;100444.94;;;5.66;69.80
20696;BME280;10507;52.754;13.040;2023-04-06T19:49:01;100433.63;;;5.61;70.15
20696;BME280;10507;52.754;13.040;2023-04-06T19:51:29;100455.97;;;5.52;70.51
20696;BME280;10507;52.754;13.040;2023-04-06T19:53:59;100454.47;;;5.45;70.63
20696;BME280;10507;52.754;13.040;2023-04-06T19:56:30;100466.19;;;5.36;70.94
20696;BME280;10507;52.754;13.040;2023-04-06T19:58:59;100497.09;;;5.36;71.27
20696;BME280;10507;52.754;13.040;2023-04-06T20:01:27;100492.69;;;5.36;70.96
20696;BME280;10507;52.754;13.040;2023-04-06T20:03:56;100533.81;;;5.47;70.84
20696;BME280;10507;52.754;13.040;2023-04-06T20:06:24;100511.88;;;5.43;70.87
20696;BME280;10507;52.754;13.040;2023-04-06T20:08:52;100529.53;;;5.42;70.60
20696;BME280;10507;52.754;13.040;2023-04-06T20:11:21;100530.41;;;5.43;70.75
20696;BME280;10507;52.754;13.040;2023-04-06T20:13:49;100521.66;;;5.41;70.58
20696;BME280;10507;52.754;13.040;2023-04-06T20:16:17;100524.34;;;5.39;70.19
20696;BME280;10507;52.754;13.040;2023-04-06T20:18:45;100519.91;;;5.40;70.37
20696;BME280;10507;52.754;13.040;2023-04-06T20:21:13;100561.50;;;5.36;71.18
20696;BME280;10507;52.754;13.040;2023-04-06T20:23:41;100564.31;;;5.30;71.19
20696;BME280;10507;52.754;13.040;2023-04-06T20:26:09;100576.72;;;5.28;71.70
20696;BME280;10507;52.754;13.040;2023-04-06T20:28:39;100573.41;;;5.21;71.54
20696;BME280;10507;52.754;13.040;2023-04-06T20:31:06;100592.06;;;5.17;71.88
20696;BME280;10507;52.754;13.040;2023-04-06T20:33:35;100591.47;;;5.07;72.24
20696;BME280;10507;52.754;13.040;2023-04-06T20:36:03;100601.41;;;4.97;72.81
20696;BME280;10507;52.754;13.040;2023-04-06T20:38:31;100628.72;;;4.99;72.53
20696;BME280;10507;52.754;13.040;2023-04-06T20:40:59;100620.88;;;4.96;72.51
20696;BME280;10507;52.754;13.040;2023-04-06T20:43:28;100637.63;;;4.95;72.79
20696;BME280;10507;52.754;13.040;2023-04-06T20:46:18;100647.41;;;4.93;73.03
20696;BME280;10507;52.754;13.040;2023-04-06T20:48:46;100652.75;;;4.90;72.60
20696;BME280;10507;52.754;13.040;2023-04-06T20:51:18;100660.66;;;4.93;72.64
20696;BME280;10507;52.754;13.040;2023-04-06T20:53:46;100659.03;;;4.86;72.69
20696;BME280;10507;52.754;13.040;2023-04-06T20:56:14;100672.50;;;4.77;73.40
20696;BME280;10507;52.754;13.040;2023-04-06T20:58:42;100692.94;;;4.72;73.84
20696;BME280;10507;52.754;13.040;2023-04-06T21:01:13;100703.72;;;4.64;74.46
20696;BME280;10507;52.754;13.040;2023-04-06T21:03:43;100704.75;;;4.57;74.27
20696;BME280;10507;52.754;13.040;2023-04-06T21:06:11;100737.47;;;4.53;74.77
20696;BME280;10507;52.754;13.040;2023-04-06T21:08:39;100729.72;;;4.45;75.07
20696;BME280;10507;52.754;13.040;2023-04-06T21:11:07;100752.75;;;4.40;75.43
20696;BME280;10507;52.754;13.040;2023-04-06T21:13:36;100750.94;;;4.42;74.81
20696;BME280;10507;52.754;13.040;2023-04-06T21:16:04;100757.31;;;4.32;75.63
20696;BME280;10507;52.754;13.040;2023-04-06T21:18:33;100767.19;;;4.24;75.58
20696;BME280;10507;52.754;13.040;2023-04-06T21:21:02;100770.13;;;4.10;76.43
20696;BME280;10507;52.754;13.040;2023-04-06T21:23:30;100782.59;;;4.05;76.46
20696;BME280;10507;52.754;13.040;2023-04-06T21:25:58;100769.66;;;3.91;76.76
20696;BME280;10507;52.754;13.040;2023-04-06T21:28:27;100818.47;;;3.71;78.25
20696;BME280;10507;52.754;13.040;2023-04-06T21:30:55;100835.25;;;3.67;78.28
20696;BME280;10507;52.754;13.040;2023-04-06T21:33:23;100835.16;;;3.72;78.23
20696;BME280;10507;52.754;13.040;2023-04-06T21:35:51;100826.44;;;3.68;77.41
20696;BME280;10507;52.754;13.040;2023-04-06T21:38:20;100836.34;;;3.56;77.90
20696;BME280;10507;52.754;13.040;2023-04-06T21:40:53;100865.38;;;3.57;78.10
20696;BME280;10507;52.754;13.040;2023-04-06T21:43:21;100874.19;;;3.56;78.20
20696;BME280;10507;52.754;13.040;2023-04-06T21:45:49;100907.66;;;3.54;78.71
20696;BME280;10507;52.754;13.040;2023-04-06T21:48:17;100881.41;;;3.45;78.00
20696;BME280;10507;52.754;13.040;2023-04-06T21:50:45;100901.66;;;3.44;78.34
20696;BME280;10507;52.754;13.040;2023-04-06T21:53:13;100916.72;;;3.38;79.07
20696;BME280;10507;52.754;13.040;2023-04-06T21:55:44;100940.38;;;3.45;78.70
20696;BME280;10507;52.754;13.040;2023-04-06T21:58:13;100946.47;;;3.47;78.23
20696;BME280;10507;52.754;13.040;2023-04-06T22:00:41;100941.25;;;3.43;78.60
20696;BME280;10507;52.754;13.040;2023-04-06T22:03:09;100959.88;;;3.35;79.32
20696;BME280;10507;52.754;13.040;2023-04-06T22:05:37;101015.38;;;3.30;79.73
20696;BME280;10507;52.754;13.040;2023-04-06T22:08:05;101033.03;;;3.25;80.89
20696;BME280;10507;52.754;13.040;2023-04-06T22:10:37;101031.34;;;3.18;80.84
20696;BME280;10507;52.754;13.040;2023-04-06T22:13:08;101048.03;;;3.22;80.82
20696;BME280;10507;52.754;13.040;2023-04-06T22:15:37;101054.88;;;3.33;80.08
20696;BME280;10507;52.754;13.040;2023-04-06T22:18:05;101030.28;;;3.31;79.59
20696;BME280;10507;52.754;13.040;2023-04-06T22:20:33;100979.34;;;3.26;78.70
20696;BME280;10507;52.754;13.040;2023-04-06T22:23:01;100946.34;;;2.98;79.48
20696;BME280;10507;52.754;13.040;2023-04-06T22:25:30;101020.38;;;2.82;81.39
20696;BME280;10507;52.754;13.040;2023-04-06T22:27:58;101065.47;;;2.58;83.52
20696;BME280;10507;52.754;13.040;2023-04-06T22:30:27;101120.03;;;2.46;84.41
20696;BME280;10507;52.754;13.040;2023-04-06T22:32:55;101175.53;;;2.28;85.81
20696;BME280;10507;52.754;13.040;2023-04-06T22:35:23;101223.88;;;2.21;86.70
20696;BME280;10507;52.754;13.040;2023-04-06T22:37:51;101259.13;;;1.98;87.67
20696;BME280;10507;52.754;13.040;2023-04-06T22:40:18;101291.63;;;1.94;88.29
20696;BME280;10507;52.754;13.040;2023-04-06T22:42:46;101296.06;;;1.77;88.44
20696;BME280;10507;52.754;13.040;2023-04-06T22:45:14;101273.34;;;1.56;88.56
20696;BME280;10507;52.754;13.040;2023-04-06T22:47:43;101254.06;;;1.43;88.37
20696;BME280;10507;52.754;13.040;2023-04-06T22:50:12;101264.63;;;1.37;88.49
20696;BME280;10507;52.754;13.040;2023-04-06T22:52:40;101329.50;;;1.38;89.58
20696;BME280;10507;52.754;13.040;2023-04-06T22:55:08;101324.25;;;1.29;89.80
20696;BME280;10507;52.754;13.040;2023-04-06T22:57:36;101347.03;;;1.30;90.33
20696;BME280;10507;52.754;13.040;2023-04-06T23:00:05;101358.44;;;1.27;90.91
20696;BME280;10507;52.754;13.040;2023-04-06T23:02:33;101369.88;;;1.26;91.07
20696;BME280;10507;52.754;13.040;2023-04-06T23:05:04;101381.25;;;1.31;91.69
20696;BME280;10507;52.754;13.040;2023-04-06T23:07:32;101371.59;;;1.32;91.79
20696;BME280;10507;52.754;13.040;2023-04-06T23:10:01;101340.94;;;1.15;91.46
20696;BME280;10507;52.754;13.040;2023-04-06T23:12:29;101333.03;;;1.11;91.05
20696;BME280;10507;52.754;13.040;2023-04-06T23:14:56;101336.53;;;1.14;91.08
20696;BME280;10507;52.754;13.040;2023-04-06T23:17:24;101338.31;;;1.12;91.11
20696;BME280;10507;52.754;13.040;2023-04-06T23:19:52;101327.78;;;1.06;90.98
20696;BME280;10507;52.754;13.040;2023-04-06T23:22:22;101275.19;;;0.91;89.79
20696;BME280;10507;52.754;13.040;2023-04-06T23:24:50;101230.50;;;0.75;89.78
20696;BME280;10507;52.754;13.040;2023-04-06T23:27:18;101244.53;;;0.77;89.13
20696;BME280;10507;52.754;13.040;2023-04-06T23:29:46;101234.00;;;0.71;89.61
20696;BME280;10507;52.754;13.040;2023-04-06T23:32:13;101263.78;;;0.72;89.27
20696;BME280;10507;52.754;13.040;2023-04-06T23:34:42;101249.78;;;0.59;89.28
20696;BME280;10507;52.754;13.040;2023-04-06T23:37:10;101260.28;;;0.56;89.91
20696;BME280;10507;52.754;13.040;2023-04-06T23:39:39;101266.44;;;0.55;89.45
20696;BME280;10507;52.754;13.040;2023-04-06T23:42:08;101282.19;;;0.55;89.80
20696;BME280;10507;52.754;13.040;2023-04-06T23:44:36;101277.81;;;0.52;89.99
20696;BME280;10507;52.754;13.040;2023-04-06T23:47:03;101295.34;;;0.52;89.27
20696;BME280;10507;52.754;13.040;2023-04-06T23:49:32;101294.44;;;0.50;89.99
20696;BME280;10507;52.754;13.040;2023-04-06T23:52:00;101293.53;;;0.41;90.03
20696;BME280;10507;52.754;13.040;2023-04-06T23:54:28;101287.38;;;0.33;90.59
20696;BME280;10507;52.754;13.040;2023-04-06T23:56:58;101307.53;;;0.30;90.04
20696;BME280;10507;52.754;13.040;2023-04-06T23:59:26;101305.78;;;0.27;90.43
